sensor_id;sensor_type;location;lat;lon;timestamp;temperature;humidity
43920;DHT22;29578;51.946;5.874;2022-08-24T00:02:24;21.00;69.20
43920;DHT22;29578;51.946;5.874;2022-08-24T00:04:51;21.00;69.20
43920;DHT22;29578;51.946;5.874;2022-08-24T00:07:19;20.90;69.30
43920;DHT22;29578;51.946;5.874;2022-08-24T00:09:46;20.90;69.40
43920;DHT22;29578;51.946;5.874;2022-08-24T00:12:13;20.90;69.40
43920;DHT22;29578;51.946;5.874;2022-08-24T00:14:40;20.80;69.50
43920;DHT22;29578;51.946;5.874;2022-08-24T00:17:06;20.80;69.60
43920;DHT22;29578;51.946;5.874;2022-08-24T00:19:33;20.80;69.70
43920;DHT22;29578;51.946;5.874;2022-08-24T00:21:59;20.80;69.70
43920;DHT22;29578;51.946;5.874;2022-08-24T00:24:25;20.80;69.80
43920;DHT22;29578;51.946;5.874;2022-08-24T00:26:52;20.70;69.80
43920;DHT22;29578;51.946;5.874;2022-08-24T00:29:20;20.70;69.90
43920;DHT22;29578;51.946;5.874;2022-08-24T00:31:47;20.70;70.10
43920;DHT22;29578;51.946;5.874;2022-08-24T00:34:13;20.70;70.20
43920;DHT22;29578;51.946;5.874;2022-08-24T00:36:40;20.60;70.20
43920;DHT22;29578;51.946;5.874;2022-08-24T00:39:07;20.60;70.30
43920;DHT22;29578;51.946;5.874;2022-08-24T00:41:33;20.60;70.50
43920;DHT22;29578;51.946;5.874;2022-08-24T00:44:02;20.60;70.50
43920;DHT22;29578;51.946;5.874;2022-08-24T00:46:39;20.60;70.70
43920;DHT22;29578;51.946;5.874;2022-08-24T00:49:19;20.50;70.70
43920;DHT22;29578;51.946;5.874;2022-08-24T00:51:55;20.50;70.80
43920;DHT22;29578;51.946;5.874;2022-08-24T00:54:23;20.50;70.80
43920;DHT22;29578;51.946;5.874;2022-08-24T00:56:55;20.40;70.80
43920;DHT22;29578;51.946;5.874;2022-08-24T00:59:28;20.40;70.90
43920;DHT22;29578;51.946;5.874;2022-08-24T01:01:55;20.30;70.90
43920;DHT22;29578;51.946;5.874;2022-08-24T01:04:29;20.30;71.00
43920;DHT22;29578;51.946;5.874;2022-08-24T01:06:56;20.30;71.10
43920;DHT22;29578;51.946;5.874;2022-08-24T01:09:22;20.30;71.20
43920;DHT22;29578;51.946;5.874;2022-08-24T01:11:48;20.30;71.30
43920;DHT22;29578;51.946;5.874;2022-08-24T01:14:16;20.20;71.30
43920;DHT22;29578;51.946;5.874;2022-08-24T01:16:43;20.20;71.40
43920;DHT22;29578;51.946;5.874;2022-08-24T01:19:36;20.20;71.40
43920;DHT22;29578;51.946;5.874;2022-08-24T01:24:57;20.10;71.60
43920;DHT22;29578;51.946;5.874;2022-08-24T01:27:24;20.10;71.60
43920;DHT22;29578;51.946;5.874;2022-08-24T01:29:50;20.10;71.70
43920;DHT22;29578;51.946;5.874;2022-08-24T01:32:21;20.10;71.80
43920;DHT22;29578;51.946;5.874;2022-08-24T01:34:48;20.00;71.80
43920;DHT22;29578;51.946;5.874;2022-08-24T01:37:14;20.00;71.90
43920;DHT22;29578;51.946;5.874;2022-08-24T01:39:43;20.00;72.00
43920;DHT22;29578;51.946;5.874;2022-08-24T01:42:10;20.00;72.10
43920;DHT22;29578;51.946;5.874;2022-08-24T01:44:39;19.90;72.00
43920;DHT22;29578;51.946;5.874;2022-08-24T01:47:07;19.90;72.20
43920;DHT22;29578;51.946;5.874;2022-08-24T01:49:36;19.90;72.20
43920;DHT22;29578;51.946;5.874;2022-08-24T01:52:04;19.90;72.30
43920;DHT22;29578;51.946;5.874;2022-08-24T01:54:31;19.90;72.40
43920;DHT22;29578;51.946;5.874;2022-08-24T01:56:58;19.90;72.40
43920;DHT22;29578;51.946;5.874;2022-08-24T01:59:24;19.90;72.50
43920;DHT22;29578;51.946;5.874;2022-08-24T02:01:54;19.90;72.60
43920;DHT22;29578;51.946;5.874;2022-08-24T02:04:20;19.80;72.60
43920;DHT22;29578;51.946;5.874;2022-08-24T02:06:47;19.80;72.70
43920;DHT22;29578;51.946;5.874;2022-08-24T02:09:12;19.80;72.80
43920;DHT22;29578;51.946;5.874;2022-08-24T02:11:39;19.70;72.80
43920;DHT22;29578;51.946;5.874;2022-08-24T02:14:05;19.70;72.90
43920;DHT22;29578;51.946;5.874;2022-08-24T02:16:31;19.80;72.90
43920;DHT22;29578;51.946;5.874;2022-08-24T02:18:57;19.70;73.00
43920;DHT22;29578;51.946;5.874;2022-08-24T02:21:24;19.70;73.10
43920;DHT22;29578;51.946;5.874;2022-08-24T02:23:50;19.70;73.10
43920;DHT22;29578;51.946;5.874;2022-08-24T02:26:16;19.70;73.20
43920;DHT22;29578;51.946;5.874;2022-08-24T02:28:42;19.60;73.20
43920;DHT22;29578;51.946;5.874;2022-08-24T02:31:10;19.60;73.30
43920;DHT22;29578;51.946;5.874;2022-08-24T02:33:37;19.60;73.40
43920;DHT22;29578;51.946;5.874;2022-08-24T02:36:04;19.60;73.50
43920;DHT22;29578;51.946;5.874;2022-08-24T02:38:31;19.60;73.60
43920;DHT22;29578;51.946;5.874;2022-08-24T02:40:57;19.60;73.60
43920;DHT22;29578;51.946;5.874;2022-08-24T02:43:23;19.50;73.60
43920;DHT22;29578;51.946;5.874;2022-08-24T02:45:49;19.50;73.70
43920;DHT22;29578;51.946;5.874;2022-08-24T02:48:15;19.50;73.80
43920;DHT22;29578;51.946;5.874;2022-08-24T02:50:43;19.50;73.90
43920;DHT22;29578;51.946;5.874;2022-08-24T02:53:11;19.50;73.90
43920;DHT22;29578;51.946;5.874;2022-08-24T02:55:39;19.50;74.00
43920;DHT22;29578;51.946;5.874;2022-08-24T02:58:06;19.50;74.00
43920;DHT22;29578;51.946;5.874;2022-08-24T03:00:34;19.40;74.00
43920;DHT22;29578;51.946;5.874;2022-08-24T03:03:01;19.30;74.00
43920;DHT22;29578;51.946;5.874;2022-08-24T03:05:27;19.40;74.10
43920;DHT22;29578;51.946;5.874;2022-08-24T03:07:54;19.40;74.80
43920;DHT22;29578;51.946;5.874;2022-08-24T03:10:20;19.40;74.20
43920;DHT22;29578;51.946;5.874;2022-08-24T03:12:46;19.30;74.30
43920;DHT22;29578;51.946;5.874;2022-08-24T03:15:13;19.30;74.30
43920;DHT22;29578;51.946;5.874;2022-08-24T03:17:39;19.30;74.40
43920;DHT22;29578;51.946;5.874;2022-08-24T03:20:08;19.30;74.50
43920;DHT22;29578;51.946;5.874;2022-08-24T03:22:36;19.30;74.50
43920;DHT22;29578;51.946;5.874;2022-08-24T03:25:02;19.20;74.50
43920;DHT22;29578;51.946;5.874;2022-08-24T03:27:28;19.30;74.60
43920;DHT22;29578;51.946;5.874;2022-08-24T03:29:54;19.30;74.60
43920;DHT22;29578;51.946;5.874;2022-08-24T03:32:20;19.30;74.70
43920;DHT22;29578;51.946;5.874;2022-08-24T03:34:46;19.20;74.70
43920;DHT22;29578;51.946;5.874;2022-08-24T03:37:11;19.20;74.80
43920;DHT22;29578;51.946;5.874;2022-08-24T03:39:38;19.20;74.90
43920;DHT22;29578;51.946;5.874;2022-08-24T03:42:04;19.20;75.00
43920;DHT22;29578;51.946;5.874;2022-08-24T03:44:30;19.10;74.90
43920;DHT22;29578;51.946;5.874;2022-08-24T03:46:55;19.10;75.00
43920;DHT22;29578;51.946;5.874;2022-08-24T03:49:21;19.10;75.00
43920;DHT22;29578;51.946;5.874;2022-08-24T03:51:47;19.10;75.10
43920;DHT22;29578;51.946;5.874;2022-08-24T03:54:14;19.00;75.10
43920;DHT22;29578;51.946;5.874;2022-08-24T03:56:41;19.00;75.20
43920;DHT22;29578;51.946;5.874;2022-08-24T03:59:08;19.10;75.20
43920;DHT22;29578;51.946;5.874;2022-08-24T04:01:36;19.10;75.30
43920;DHT22;29578;51.946;5.874;2022-08-24T04:04:03;19.00;75.20
43920;DHT22;29578;51.946;5.874;2022-08-24T04:06:30;19.00;75.30
43920;DHT22;29578;51.946;5.874;2022-08-24T04:08:55;19.00;75.40
43920;DHT22;29578;51.946;5.874;2022-08-24T04:11:27;18.90;75.40
43920;DHT22;29578;51.946;5.874;2022-08-24T04:13:55;18.90;75.50
43920;DHT22;29578;51.946;5.874;2022-08-24T04:16:22;18.90;75.50
43920;DHT22;29578;51.946;5.874;2022-08-24T04:18:48;18.90;75.50
43920;DHT22;29578;51.946;5.874;2022-08-24T04:21:25;18.90;75.60
43920;DHT22;29578;51.946;5.874;2022-08-24T04:23:51;18.90;75.70
43920;DHT22;29578;51.946;5.874;2022-08-24T04:26:19;18.90;75.60
43920;DHT22;29578;51.946;5.874;2022-08-24T04:28:45;18.90;75.70
43920;DHT22;29578;51.946;5.874;2022-08-24T04:31:11;18.90;75.70
43920;DHT22;29578;51.946;5.874;2022-08-24T04:33:38;18.90;75.80
43920;DHT22;29578;51.946;5.874;2022-08-24T04:36:08;18.90;75.80
43920;DHT22;29578;51.946;5.874;2022-08-24T04:38:35;18.80;75.80
43920;DHT22;29578;51.946;5.874;2022-08-24T04:41:04;18.80;75.90
43920;DHT22;29578;51.946;5.874;2022-08-24T04:43:30;18.80;76.00
43920;DHT22;29578;51.946;5.874;2022-08-24T04:45:56;18.90;76.10
43920;DHT22;29578;51.946;5.874;2022-08-24T04:48:22;18.80;76.10
43920;DHT22;29578;51.946;5.874;2022-08-24T04:50:48;18.80;76.10
43920;DHT22;29578;51.946;5.874;2022-08-24T04:53:15;18.80;76.20
43920;DHT22;29578;51.946;5.874;2022-08-24T04:55:44;18.80;76.20
43920;DHT22;29578;51.946;5.874;2022-08-24T04:58:12;18.80;76.20
43920;DHT22;29578;51.946;5.874;2022-08-24T05:00:39;18.80;76.30
43920;DHT22;29578;51.946;5.874;2022-08-24T05:03:05;18.80;76.90
43920;DHT22;29578;51.946;5.874;2022-08-24T05:05:32;18.80;76.30
43920;DHT22;29578;51.946;5.874;2022-08-24T05:07:58;18.80;76.30
43920;DHT22;29578;51.946;5.874;2022-08-24T05:10:23;18.80;76.30
43920;DHT22;29578;51.946;5.874;2022-08-24T05:12:49;18.80;76.30
43920;DHT22;29578;51.946;5.874;2022-08-24T05:15:15;18.80;76.40
43920;DHT22;29578;51.946;5.874;2022-08-24T05:17:41;18.80;76.30
43920;DHT22;29578;51.946;5.874;2022-08-24T05:20:09;18.80;76.30
43920;DHT22;29578;51.946;5.874;2022-08-24T05:22:35;18.80;76.30
43920;DHT22;29578;51.946;5.874;2022-08-24T05:25:03;18.80;76.30
43920;DHT22;29578;51.946;5.874;2022-08-24T05:27:29;18.80;76.30
43920;DHT22;29578;51.946;5.874;2022-08-24T05:29:56;18.90;76.30
43920;DHT22;29578;51.946;5.874;2022-08-24T05:32:22;18.90;76.40
43920;DHT22;29578;51.946;5.874;2022-08-24T05:34:48;18.90;76.30
43920;DHT22;29578;51.946;5.874;2022-08-24T05:37:14;18.90;76.30
43920;DHT22;29578;51.946;5.874;2022-08-24T05:39:40;18.90;76.30
43920;DHT22;29578;51.946;5.874;2022-08-24T05:42:06;18.90;76.30
43920;DHT22;29578;51.946;5.874;2022-08-24T05:44:32;19.00;76.30
43920;DHT22;29578;51.946;5.874;2022-08-24T05:46:58;19.00;76.30
43920;DHT22;29578;51.946;5.874;2022-08-24T05:49:25;19.20;76.40
43920;DHT22;29578;51.946;5.874;2022-08-24T05:51:52;19.10;76.30
43920;DHT22;29578;51.946;5.874;2022-08-24T05:54:18;19.10;76.30
43920;DHT22;29578;51.946;5.874;2022-08-24T05:56:44;19.20;76.30
43920;DHT22;29578;51.946;5.874;2022-08-24T05:59:11;19.20;76.30
43920;DHT22;29578;51.946;5.874;2022-08-24T06:01:41;19.20;76.20
43920;DHT22;29578;51.946;5.874;2022-08-24T06:04:06;19.30;76.30
43920;DHT22;29578;51.946;5.874;2022-08-24T06:06:32;19.30;76.20
43920;DHT22;29578;51.946;5.874;2022-08-24T06:08:59;19.40;76.20
43920;DHT22;29578;51.946;5.874;2022-08-24T06:11:29;19.40;76.20
43920;DHT22;29578;51.946;5.874;2022-08-24T06:13:59;19.50;76.20
43920;DHT22;29578;51.946;5.874;2022-08-24T06:16:25;19.50;76.20
43920;DHT22;29578;51.946;5.874;2022-08-24T06:18:52;19.50;76.10
43920;DHT22;29578;51.946;5.874;2022-08-24T06:21:23;19.60;76.10
43920;DHT22;29578;51.946;5.874;2022-08-24T06:23:51;19.70;76.20
43920;DHT22;29578;51.946;5.874;2022-08-24T06:26:19;19.70;76.10
43920;DHT22;29578;51.946;5.874;2022-08-24T06:29:04;19.80;76.10
43920;DHT22;29578;51.946;5.874;2022-08-24T06:31:35;19.80;76.00
43920;DHT22;29578;51.946;5.874;2022-08-24T06:34:01;19.90;76.00
43920;DHT22;29578;51.946;5.874;2022-08-24T06:36:27;20.00;76.00
43920;DHT22;29578;51.946;5.874;2022-08-24T06:38:53;20.10;75.80
43920;DHT22;29578;51.946;5.874;2022-08-24T06:41:19;20.10;75.80
43920;DHT22;29578;51.946;5.874;2022-08-24T06:43:46;20.20;75.70
43920;DHT22;29578;51.946;5.874;2022-08-24T06:46:12;20.30;75.60
43920;DHT22;29578;51.946;5.874;2022-08-24T06:48:38;20.40;75.50
43920;DHT22;29578;51.946;5.874;2022-08-24T06:51:14;20.50;75.50
43920;DHT22;29578;51.946;5.874;2022-08-24T06:53:41;20.50;75.50
43920;DHT22;29578;51.946;5.874;2022-08-24T06:56:08;20.60;75.40
43920;DHT22;29578;51.946;5.874;2022-08-24T06:58:35;20.70;75.40
43920;DHT22;29578;51.946;5.874;2022-08-24T07:01:10;20.70;76.00
43920;DHT22;29578;51.946;5.874;2022-08-24T07:03:37;20.70;75.40
43920;DHT22;29578;51.946;5.874;2022-08-24T07:06:03;20.80;75.30
43920;DHT22;29578;51.946;5.874;2022-08-24T07:08:30;20.80;75.30
43920;DHT22;29578;51.946;5.874;2022-08-24T07:10:56;20.90;75.30
43920;DHT22;29578;51.946;5.874;2022-08-24T07:13:21;20.90;75.20
43920;DHT22;29578;51.946;5.874;2022-08-24T07:15:50;21.10;75.20
43920;DHT22;29578;51.946;5.874;2022-08-24T07:18:18;21.10;75.10
43920;DHT22;29578;51.946;5.874;2022-08-24T07:20:44;21.10;75.00
43920;DHT22;29578;51.946;5.874;2022-08-24T07:23:10;21.20;75.00
43920;DHT22;29578;51.946;5.874;2022-08-24T07:25:39;21.30;75.00
43920;DHT22;29578;51.946;5.874;2022-08-24T07:28:05;21.40;74.90
43920;DHT22;29578;51.946;5.874;2022-08-24T07:30:30;21.50;74.70
43920;DHT22;29578;51.946;5.874;2022-08-24T07:32:56;21.60;74.50
43920;DHT22;29578;51.946;5.874;2022-08-24T07:35:25;21.60;74.40
43920;DHT22;29578;51.946;5.874;2022-08-24T07:37:51;21.60;74.30
43920;DHT22;29578;51.946;5.874;2022-08-24T07:40:17;21.70;74.30
43920;DHT22;29578;51.946;5.874;2022-08-24T07:42:47;21.80;74.20
43920;DHT22;29578;51.946;5.874;2022-08-24T07:45:13;21.90;74.10
43920;DHT22;29578;51.946;5.874;2022-08-24T07:47:39;22.10;73.80
43920;DHT22;29578;51.946;5.874;2022-08-24T07:50:06;22.20;73.60
43920;DHT22;29578;51.946;5.874;2022-08-24T07:52:32;22.30;73.30
43920;DHT22;29578;51.946;5.874;2022-08-24T07:54:58;22.40;73.20
43920;DHT22;29578;51.946;5.874;2022-08-24T07:57:24;22.50;72.90
43920;DHT22;29578;51.946;5.874;2022-08-24T07:59:50;22.60;72.90
43920;DHT22;29578;51.946;5.874;2022-08-24T08:02:17;22.70;72.80
43920;DHT22;29578;51.946;5.874;2022-08-24T08:04:43;22.80;72.70
43920;DHT22;29578;51.946;5.874;2022-08-24T08:07:09;22.90;72.70
43920;DHT22;29578;51.946;5.874;2022-08-24T08:09:37;23.00;72.50
43920;DHT22;29578;51.946;5.874;2022-08-24T08:12:03;23.10;72.30
43920;DHT22;29578;51.946;5.874;2022-08-24T08:14:31;23.30;72.10
43920;DHT22;29578;51.946;5.874;2022-08-24T08:16:56;23.50;71.80
43920;DHT22;29578;51.946;5.874;2022-08-24T08:19:23;23.70;71.50
43920;DHT22;29578;51.946;5.874;2022-08-24T08:21:51;23.90;71.20
43920;DHT22;29578;51.946;5.874;2022-08-24T08:24:37;24.10;70.80
43920;DHT22;29578;51.946;5.874;2022-08-24T08:27:04;24.30;70.40
43920;DHT22;29578;51.946;5.874;2022-08-24T08:29:32;24.50;70.20
43920;DHT22;29578;51.946;5.874;2022-08-24T08:31:58;24.70;69.90
43920;DHT22;29578;51.946;5.874;2022-08-24T08:34:25;24.90;69.80
43920;DHT22;29578;51.946;5.874;2022-08-24T08:36:51;25.10;69.30
43920;DHT22;29578;51.946;5.874;2022-08-24T08:39:20;25.30;69.00
43920;DHT22;29578;51.946;5.874;2022-08-24T08:47:58;25.70;68.60
43920;DHT22;29578;51.946;5.874;2022-08-24T08:50:38;25.90;68.40
43920;DHT22;29578;51.946;5.874;2022-08-24T08:56:22;26.20;67.70
43920;DHT22;29578;51.946;5.874;2022-08-24T08:59:14;26.40;67.40
43920;DHT22;29578;51.946;5.874;2022-08-24T09:04:46;26.60;67.00
43920;DHT22;29578;51.946;5.874;2022-08-24T09:10:15;26.90;67.50
43920;DHT22;29578;51.946;5.874;2022-08-24T09:12:57;27.00;66.50
43920;DHT22;29578;51.946;5.874;2022-08-24T09:15:47;27.10;66.30
43920;DHT22;29578;51.946;5.874;2022-08-24T09:18:44;27.20;66.30
43920;DHT22;29578;51.946;5.874;2022-08-24T09:24:22;27.30;66.00
43920;DHT22;29578;51.946;5.874;2022-08-24T09:30:07;27.50;65.70
43920;DHT22;29578;51.946;5.874;2022-08-24T09:35:34;27.60;65.50
43920;DHT22;29578;51.946;5.874;2022-08-24T09:38:15;27.70;65.30
43920;DHT22;29578;51.946;5.874;2022-08-24T09:41:00;27.80;65.20
43920;DHT22;29578;51.946;5.874;2022-08-24T09:43:59;27.90;65.10
43920;DHT22;29578;51.946;5.874;2022-08-24T09:50:01;28.00;64.60
43920;DHT22;29578;51.946;5.874;2022-08-24T09:55:37;28.40;64.10
43920;DHT22;29578;51.946;5.874;2022-08-24T09:58:36;28.40;63.90
43920;DHT22;29578;51.946;5.874;2022-08-24T10:01:11;28.40;63.80
43920;DHT22;29578;51.946;5.874;2022-08-24T10:10:02;28.50;63.60
43920;DHT22;29578;51.946;5.874;2022-08-24T10:12:56;28.60;63.60
43920;DHT22;29578;51.946;5.874;2022-08-24T10:18:32;28.60;63.20
43920;DHT22;29578;51.946;5.874;2022-08-24T10:21:19;28.60;63.10
43920;DHT22;29578;51.946;5.874;2022-08-24T10:24:16;28.70;62.90
43920;DHT22;29578;51.946;5.874;2022-08-24T10:30:03;28.70;62.40
43920;DHT22;29578;51.946;5.874;2022-08-24T10:32:44;28.70;62.50
43920;DHT22;29578;51.946;5.874;2022-08-24T10:35:17;28.80;62.30
43920;DHT22;29578;51.946;5.874;2022-08-24T10:38:05;28.90;61.90
43920;DHT22;29578;51.946;5.874;2022-08-24T10:41:19;28.90;61.50
43920;DHT22;29578;51.946;5.874;2022-08-24T10:44:03;29.00;61.40
43920;DHT22;29578;51.946;5.874;2022-08-24T10:49:38;29.00;60.90
43920;DHT22;29578;51.946;5.874;2022-08-24T10:55:18;29.10;60.60
43920;DHT22;29578;51.946;5.874;2022-08-24T11:00:46;29.20;60.50
43920;DHT22;29578;51.946;5.874;2022-08-24T11:03:15;29.20;60.50
43920;DHT22;29578;51.946;5.874;2022-08-24T11:05:47;29.10;60.40
43920;DHT22;29578;51.946;5.874;2022-08-24T11:08:23;29.00;60.50
43920;DHT22;29578;51.946;5.874;2022-08-24T11:11:03;28.90;60.50
43920;DHT22;29578;51.946;5.874;2022-08-24T11:13:31;29.00;60.40
43920;DHT22;29578;51.946;5.874;2022-08-24T11:16:00;29.00;60.10
43920;DHT22;29578;51.946;5.874;2022-08-24T11:18:46;29.20;60.00
43920;DHT22;29578;51.946;5.874;2022-08-24T11:21:30;29.30;59.70
43920;DHT22;29578;51.946;5.874;2022-08-24T11:24:03;29.40;59.50
43920;DHT22;29578;51.946;5.874;2022-08-24T11:26:30;29.50;59.20
43920;DHT22;29578;51.946;5.874;2022-08-24T11:29:09;29.60;59.00
43920;DHT22;29578;51.946;5.874;2022-08-24T11:31:39;29.70;58.60
43920;DHT22;29578;51.946;5.874;2022-08-24T11:34:08;29.60;58.50
43920;DHT22;29578;51.946;5.874;2022-08-24T11:36:37;29.50;58.70
43920;DHT22;29578;51.946;5.874;2022-08-24T11:39:16;29.40;58.90
43920;DHT22;29578;51.946;5.874;2022-08-24T11:42:06;29.40;59.10
43920;DHT22;29578;51.946;5.874;2022-08-24T11:44:41;29.40;59.00
43920;DHT22;29578;51.946;5.874;2022-08-24T11:47:28;29.50;58.80
43920;DHT22;29578;51.946;5.874;2022-08-24T11:50:23;29.50;58.70
43920;DHT22;29578;51.946;5.874;2022-08-24T11:53:03;29.50;58.70
43920;DHT22;29578;51.946;5.874;2022-08-24T11:55:41;29.50;58.60
43920;DHT22;29578;51.946;5.874;2022-08-24T11:58:16;29.50;58.60
43920;DHT22;29578;51.946;5.874;2022-08-24T12:00:52;29.50;58.60
43920;DHT22;29578;51.946;5.874;2022-08-24T12:09:24;29.50;58.60
43920;DHT22;29578;51.946;5.874;2022-08-24T12:12:12;29.40;58.50
43920;DHT22;29578;51.946;5.874;2022-08-24T12:14:49;29.40;58.30
43920;DHT22;29578;51.946;5.874;2022-08-24T12:17:25;29.50;58.40
43920;DHT22;29578;51.946;5.874;2022-08-24T12:19:58;29.50;58.30
43920;DHT22;29578;51.946;5.874;2022-08-24T12:22:26;29.50;58.20
43920;DHT22;29578;51.946;5.874;2022-08-24T12:24:55;29.50;58.10
43920;DHT22;29578;51.946;5.874;2022-08-24T12:27:27;29.60;58.00
43920;DHT22;29578;51.946;5.874;2022-08-24T12:30:06;29.60;58.00
43920;DHT22;29578;51.946;5.874;2022-08-24T12:32:38;29.70;58.60
43920;DHT22;29578;51.946;5.874;2022-08-24T12:35:13;29.70;57.80
43920;DHT22;29578;51.946;5.874;2022-08-24T12:37:43;29.60;57.80
43920;DHT22;29578;51.946;5.874;2022-08-24T12:43:11;29.50;57.90
43920;DHT22;29578;51.946;5.874;2022-08-24T12:45:37;29.40;57.90
43920;DHT22;29578;51.946;5.874;2022-08-24T12:57:04;29.40;58.00
43920;DHT22;29578;51.946;5.874;2022-08-24T12:59:54;29.40;57.60
43920;DHT22;29578;51.946;5.874;2022-08-24T13:02:30;29.60;57.50
43920;DHT22;29578;51.946;5.874;2022-08-24T13:05:03;29.80;57.20
43920;DHT22;29578;51.946;5.874;2022-08-24T13:07:38;30.00;56.80
43920;DHT22;29578;51.946;5.874;2022-08-24T13:10:12;30.10;56.60
43920;DHT22;29578;51.946;5.874;2022-08-24T13:13:06;30.20;56.40
43920;DHT22;29578;51.946;5.874;2022-08-24T13:15:54;30.30;56.30
43920;DHT22;29578;51.946;5.874;2022-08-24T13:18:48;30.40;56.00
43920;DHT22;29578;51.946;5.874;2022-08-24T13:21:34;30.50;55.80
43920;DHT22;29578;51.946;5.874;2022-08-24T13:30:05;30.50;55.70
43920;DHT22;29578;51.946;5.874;2022-08-24T13:32:39;30.60;55.80
43920;DHT22;29578;51.946;5.874;2022-08-24T13:38:26;30.70;55.50
43920;DHT22;29578;51.946;5.874;2022-08-24T13:41:16;30.80;55.30
43920;DHT22;29578;51.946;5.874;2022-08-24T13:44:21;30.80;55.30
43920;DHT22;29578;51.946;5.874;2022-08-24T13:47:05;30.70;55.40
43920;DHT22;29578;51.946;5.874;2022-08-24T13:55:28;30.70;55.40
43920;DHT22;29578;51.946;5.874;2022-08-24T14:01:06;30.70;55.20
43920;DHT22;29578;51.946;5.874;2022-08-24T14:03:57;30.60;55.10
43920;DHT22;29578;51.946;5.874;2022-08-24T14:06:35;30.70;55.20
43920;DHT22;29578;51.946;5.874;2022-08-24T14:12:34;30.60;54.90
43920;DHT22;29578;51.946;5.874;2022-08-24T14:15:14;30.60;54.80
43920;DHT22;29578;51.946;5.874;2022-08-24T14:18:02;30.70;54.70
43920;DHT22;29578;51.946;5.874;2022-08-24T14:20:41;30.80;54.70
43920;DHT22;29578;51.946;5.874;2022-08-24T14:23:27;30.80;55.20
43920;DHT22;29578;51.946;5.874;2022-08-24T14:28:53;31.00;54.30
43920;DHT22;29578;51.946;5.874;2022-08-24T14:31:21;31.00;54.30
43920;DHT22;29578;51.946;5.874;2022-08-24T14:34:10;31.00;54.10
43920;DHT22;29578;51.946;5.874;2022-08-24T14:36:45;31.00;54.10
43920;DHT22;29578;51.946;5.874;2022-08-24T14:45:08;31.10;53.90
43920;DHT22;29578;51.946;5.874;2022-08-24T14:47:57;31.10;53.90
43920;DHT22;29578;51.946;5.874;2022-08-24T14:50:32;31.20;53.90
43920;DHT22;29578;51.946;5.874;2022-08-24T14:53:43;31.10;53.70
43920;DHT22;29578;51.946;5.874;2022-08-24T14:56:30;31.20;53.80
43920;DHT22;29578;51.946;5.874;2022-08-24T14:59:26;31.10;53.90
43920;DHT22;29578;51.946;5.874;2022-08-24T15:02:27;31.10;53.90
43920;DHT22;29578;51.946;5.874;2022-08-24T15:05:11;31.00;54.00
43920;DHT22;29578;51.946;5.874;2022-08-24T15:08:07;30.90;54.00
43920;DHT22;29578;51.946;5.874;2022-08-24T15:10:50;30.80;54.10
43920;DHT22;29578;51.946;5.874;2022-08-24T15:16:34;30.70;54.40
43920;DHT22;29578;51.946;5.874;2022-08-24T15:19:26;30.60;54.60
43920;DHT22;29578;51.946;5.874;2022-08-24T15:22:07;30.60;54.60
43920;DHT22;29578;51.946;5.874;2022-08-24T15:24:39;30.60;54.50
43920;DHT22;29578;51.946;5.874;2022-08-24T15:27:17;30.60;54.30
43920;DHT22;29578;51.946;5.874;2022-08-24T15:29:53;30.70;54.10
43920;DHT22;29578;51.946;5.874;2022-08-24T15:32:21;30.70;54.00
43920;DHT22;29578;51.946;5.874;2022-08-24T15:34:51;30.70;53.90
43920;DHT22;29578;51.946;5.874;2022-08-24T15:37:26;30.80;53.80
43920;DHT22;29578;51.946;5.874;2022-08-24T15:39:52;30.70;53.60
43920;DHT22;29578;51.946;5.874;2022-08-24T15:42:18;30.80;53.60
43920;DHT22;29578;51.946;5.874;2022-08-24T15:44:46;30.90;53.60
43920;DHT22;29578;51.946;5.874;2022-08-24T15:47:30;30.80;53.30
43920;DHT22;29578;51.946;5.874;2022-08-24T15:50:00;30.80;53.30
43920;DHT22;29578;51.946;5.874;2022-08-24T15:55:38;30.90;53.20
43920;DHT22;29578;51.946;5.874;2022-08-24T16:04:02;31.00;52.90
43920;DHT22;29578;51.946;5.874;2022-08-24T16:06:39;31.00;52.80
43920;DHT22;29578;51.946;5.874;2022-08-24T16:09:30;31.00;52.70
43920;DHT22;29578;51.946;5.874;2022-08-24T16:12:04;31.00;52.60
43920;DHT22;29578;51.946;5.874;2022-08-24T16:14:35;31.10;52.70
43920;DHT22;29578;51.946;5.874;2022-08-24T16:17:27;31.10;52.70
43920;DHT22;29578;51.946;5.874;2022-08-24T16:19:57;31.00;52.50
43920;DHT22;29578;51.946;5.874;2022-08-24T16:22:30;31.00;52.50
43920;DHT22;29578;51.946;5.874;2022-08-24T16:25:13;31.00;52.50
43920;DHT22;29578;51.946;5.874;2022-08-24T16:27:56;31.00;52.60
43920;DHT22;29578;51.946;5.874;2022-08-24T16:30:36;30.90;52.60
43920;DHT22;29578;51.946;5.874;2022-08-24T16:33:02;30.90;52.60
43920;DHT22;29578;51.946;5.874;2022-08-24T16:35:28;30.80;52.60
43920;DHT22;29578;51.946;5.874;2022-08-24T16:37:55;30.80;52.60
43920;DHT22;29578;51.946;5.874;2022-08-24T16:40:22;30.80;52.60
43920;DHT22;29578;51.946;5.874;2022-08-24T16:42:48;30.80;52.50
43920;DHT22;29578;51.946;5.874;2022-08-24T16:45:18;30.80;52.50
43920;DHT22;29578;51.946;5.874;2022-08-24T16:47:45;30.80;52.50
43920;DHT22;29578;51.946;5.874;2022-08-24T16:50:13;30.80;52.40
43920;DHT22;29578;51.946;5.874;2022-08-24T16:52:39;30.80;52.40
43920;DHT22;29578;51.946;5.874;2022-08-24T16:55:05;30.70;52.30
43920;DHT22;29578;51.946;5.874;2022-08-24T16:57:32;30.70;52.30
43920;DHT22;29578;51.946;5.874;2022-08-24T17:00:06;30.70;52.30
43920;DHT22;29578;51.946;5.874;2022-08-24T17:02:33;30.70;52.20
43920;DHT22;29578;51.946;5.874;2022-08-24T17:04:58;30.70;52.20
43920;DHT22;29578;51.946;5.874;2022-08-24T17:07:27;30.60;52.10
43920;DHT22;29578;51.946;5.874;2022-08-24T17:09:53;30.60;52.10
43920;DHT22;29578;51.946;5.874;2022-08-24T17:12:20;30.70;52.20
43920;DHT22;29578;51.946;5.874;2022-08-24T17:14:47;30.60;52.10
43920;DHT22;29578;51.946;5.874;2022-08-24T17:17:15;30.50;52.00
43920;DHT22;29578;51.946;5.874;2022-08-24T17:19:43;30.50;52.00
43920;DHT22;29578;51.946;5.874;2022-08-24T17:22:08;30.50;52.00
43920;DHT22;29578;51.946;5.874;2022-08-24T17:24:34;30.50;52.00
43920;DHT22;29578;51.946;5.874;2022-08-24T17:27:01;30.40;52.00
43920;DHT22;29578;51.946;5.874;2022-08-24T17:29:27;30.40;52.10
43920;DHT22;29578;51.946;5.874;2022-08-24T17:31:53;30.30;52.00
43920;DHT22;29578;51.946;5.874;2022-08-24T17:34:20;30.20;52.00
43920;DHT22;29578;51.946;5.874;2022-08-24T17:36:48;30.20;52.00
43920;DHT22;29578;51.946;5.874;2022-08-24T17:39:15;30.10;52.10
43920;DHT22;29578;51.946;5.874;2022-08-24T17:41:41;30.10;52.20
43920;DHT22;29578;51.946;5.874;2022-08-24T17:44:10;30.00;52.20
43920;DHT22;29578;51.946;5.874;2022-08-24T17:46:38;29.90;52.10
43920;DHT22;29578;51.946;5.874;2022-08-24T17:49:06;29.90;52.20
43920;DHT22;29578;51.946;5.874;2022-08-24T17:51:32;29.90;52.20
43920;DHT22;29578;51.946;5.874;2022-08-24T17:53:58;29.80;52.30